EHVL  Vlieland Heliport

Add Bookmark

Vlieland, The Netherlands

Status
Operational
Latitude Longitude
53° 17' 47" N 5° 5' 8" E
53.296665 5.085833
Local (DST + 2) UTC (GMT + 1)
Oct 31, 2014 05:16 Oct 31, 2014 16:16
Sunrise-Sunset Local UTC
Begin Civil Twilight 06:58 05:58
Sunrise 07:35 06:35
Sunset 05:11 16:11
End Civil Twilight 05:47 16:47

Current Weather

METAR Observed MVFR
EHVL 311555Z AUTO 18009KT 6000 BR OVC100 14/13 Q1019 WHT Fri, Oct 31, 2014 @ 15:55 UTC
(21 Minutes ago)
Marginal Visual Flight Rules
Wind Visibility Clouds Conditions
180° at 9 knots (17 kph) 6000 meters
  • Overcast at 10,000' AGL
  • Mist
Temperatures Readings Precipitation
Current Temp 14°C (57°F)
Dewpoint 13°C (55°F)
Humidity 94%
Altimeter 30.09"Hg
Sea Level Pressure 1019mb
Field Elevation 16.4'
None Recorded

Additional weather within a 92.6km radius of EHVL

Map ICAO Location
EHMG 36.5km N (347°)
EHLW 45.6km E (099°)
EHKD 46.1km S (206°)
EHMA 61.5km E (068°)
EHQE 75.4km W (236°)

24 Hour Weather History

Loading
-

24 Hour Weather Graphs

Loading
-

CheckWX.com is intended as a tool to help pilots better visualize weather data. It is not intended as a substitute for an official weather briefing obtained from a Flight Service Station. CheckWX.com does not meet the FAA requirements for an official pre-flight weather briefing. Therefore, it's important that pilots still call and obtain an official FSS pre-flight weather briefing.